Time;durP1;ratioP1;P1;durP2;ratioP2;P2;SDS_P1;SDS_P2;PMS_P1;PMS_P2;Temp;Humidity;BMP_temperature;BMP_pressure;BME280_temperature;BME280_humidity;BME280_pressure;Samples;Min_cycle;Max_cycle;Signal;HPM_P1;HPM_P2
2023/04/24 00:01:48;;;;;;;4.18;3.78;;;11.40;99.90;;;;;;4934925;28;20053;-67
2023/04/24 00:04:16;;;;;;;6.25;3.42;;;11.40;99.90;;;;;;4950608;28;20042;-67
2023/04/24 00:06:42;;;;;;;4.10;3.40;;;11.40;99.90;;;;;;4951210;28;20571;-67
2023/04/24 00:09:09;;;;;;;5.20;3.53;;;11.40;99.90;;;;;;4954111;28;20038;-66
2023/04/24 00:11:36;;;;;;;4.55;3.20;;;11.40;99.90;;;;;;4953022;28;20134;-67
2023/04/24 00:14:01;;;;;;;3.58;3.28;;;11.30;99.90;;;;;;4946686;28;20124;-66
2023/04/24 00:16:27;;;;;;;3.70;3.30;;;11.30;99.90;;;;;;4953522;28;20180;-66
2023/04/24 00:18:53;;;;;;;4.93;3.58;;;11.30;99.90;;;;;;4954146;28;20053;-67
2023/04/24 00:21:20;;;;;;;6.53;4.40;;;11.30;99.90;;;;;;4953669;28;20046;-67
2023/04/24 00:23:46;;;;;;;4.57;3.97;;;11.30;99.90;;;;;;4953428;28;20401;-67
2023/04/24 00:26:11;;;;;;;4.47;4.07;;;11.30;99.90;;;;;;4946449;28;20096;-66
2023/04/24 00:28:37;;;;;;;4.38;3.97;;;11.30;99.90;;;;;;4954746;28;20097;-67
2023/04/24 00:31:03;;;;;;;4.75;4.00;;;11.30;99.90;;;;;;4944190;28;20816;-65
2023/04/24 00:33:29;;;;;;;5.22;4.20;;;11.20;99.90;;;;;;4962282;28;20118;-67
2023/04/24 00:35:55;;;;;;;5.43;3.90;;;11.30;99.90;;;;;;4953238;28;20050;-67
2023/04/24 00:38:21;;;;;;;5.90;4.20;;;11.20;99.90;;;;;;4952820;28;20136;-66
2023/04/24 00:40:49;;;;;;;6.00;4.35;;;11.20;99.90;;;;;;4949827;28;20050;-67
2023/04/24 00:43:16;;;;;;;4.75;4.18;;;11.20;99.90;;;;;;4955191;28;20133;-67
2023/04/24 00:45:41;;;;;;;9.77;4.72;;;11.20;99.90;;;;;;4963874;28;20049;-67
2023/04/24 00:48:08;;;;;;;5.15;4.57;;;11.20;99.90;;;;;;4942284;28;20046;-66
2023/04/24 00:50:36;;;;;;;5.63;5.03;;;11.20;99.90;;;;;;4925910;28;20054;-67
2023/04/24 00:53:01;;;;;;;5.95;4.70;;;11.20;99.90;;;;;;4951633;28;20058;-67
2023/04/24 00:55:27;;;;;;;6.78;4.60;;;11.20;99.90;;;;;;4942835;28;20042;-67
2023/04/24 00:57:55;;;;;;;4.20;3.50;;;11.30;99.90;;;;;;4950967;28;20082;-67
2023/04/24 01:00:21;;;;;;;5.05;3.15;;;11.20;99.90;;;;;;4950909;28;20167;-67
2023/04/24 01:02:47;;;;;;;3.53;3.22;;;11.20;99.90;;;;;;4950283;28;20513;-66
2023/04/24 01:05:14;;;;;;;3.65;2.45;;;11.20;99.90;;;;;;4957072;28;20831;-67
2023/04/24 01:07:47;;;;;;;2.30;2.10;;;11.20;99.90;;;;;;4947073;28;20160;-67
2023/04/24 01:10:14;;;;;;;2.25;2.05;;;11.20;99.90;;;;;;4948874;28;20501;-65
2023/04/24 01:12:40;;;;;;;2.72;1.83;;;11.10;99.90;;;;;;4943103;28;20046;-67
2023/04/24 01:15:06;;;;;;;4.20;1.77;;;11.10;99.90;;;;;;4949008;28;20047;-67
2023/04/24 01:17:33;;;;;;;1.60;1.50;;;11.00;99.90;;;;;;4955091;28;20081;-67
2023/04/24 01:19:59;;;;;;;2.38;1.73;;;11.00;99.90;;;;;;4946047;28;20463;-67
2023/04/24 01:22:26;;;;;;;1.85;1.70;;;11.00;99.90;;;;;;4945872;28;20072;-67
2023/04/24 01:24:53;;;;;;;1.60;1.50;;;10.90;99.90;;;;;;4955119;28;20196;-67
2023/04/24 01:27:19;;;;;;;1.70;1.40;;;10.90;99.90;;;;;;4941377;28;20393;-66
2023/04/24 01:29:45;;;;;;;1.40;1.30;;;10.90;99.90;;;;;;4939260;28;20133;-67
2023/04/24 01:32:11;;;;;;;1.50;1.40;;;10.90;99.90;;;;;;4953689;28;20046;-65
2023/04/24 01:34:38;;;;;;;1.40;1.30;;;10.90;99.90;;;;;;4956600;28;20088;-66
2023/04/24 01:37:05;;;;;;;1.63;1.52;;;10.80;99.90;;;;;;4939046;28;20583;-66
2023/04/24 01:39:31;;;;;;;2.85;1.50;;;10.70;99.90;;;;;;4953216;28;20441;-67
2023/04/24 01:41:57;;;;;;;1.67;1.50;;;10.80;99.90;;;;;;4959521;28;20043;-67
2023/04/24 01:44:23;;;;;;;2.00;1.70;;;10.70;99.90;;;;;;4960528;28;20119;-67
2023/04/24 01:46:49;;;;;;;2.80;1.70;;;10.70;99.90;;;;;;4951924;28;20035;-67
2023/04/24 01:49:15;;;;;;;2.83;1.60;;;10.70;99.90;;;;;;4946161;28;20038;-66
2023/04/24 01:51:41;;;;;;;1.83;1.70;;;10.60;99.90;;;;;;4954396;28;20042;-67
2023/04/24 01:54:07;;;;;;;1.80;1.70;;;10.70;99.90;;;;;;4954570;28;20035;-68
2023/04/24 01:56:40;;;;;;;2.13;1.83;;;10.60;99.90;;;;;;4952111;28;20045;-66
2023/04/24 01:59:07;;;;;;;2.25;1.77;;;10.60;99.90;;;;;;4951173;28;20047;-67
2023/04/24 02:01:36;;;;;;;2.22;2.08;;;10.60;99.90;;;;;;4953313;28;20140;-67
2023/04/24 02:04:02;;;;;;;2.25;2.05;;;10.50;99.90;;;;;;4969881;28;20053;-67
2023/04/24 02:06:27;;;;;;;2.90;2.00;;;10.50;99.90;;;;;;4941023;28;20053;-67
2023/04/24 02:08:53;;;;;;;2.50;2.30;;;10.50;99.90;;;;;;4940456;28;20043;-67
2023/04/24 02:11:19;;;;;;;2.63;2.33;;;10.50;99.90;;;;;;4944364;28;20043;-67
2023/04/24 02:13:45;;;;;;;3.08;2.30;;;10.50;99.90;;;;;;4940273;28;20133;-67
2023/04/24 02:16:10;;;;;;;2.75;2.55;;;10.40;99.90;;;;;;4942765;28;20090;-66
2023/04/24 02:18:36;;;;;;;3.60;2.60;;;10.40;99.90;;;;;;4950281;28;20051;-67
2023/04/24 02:21:02;;;;;;;2.97;2.70;;;10.40;99.90;;;;;;4951677;28;20514;-67
2023/04/24 02:23:27;;;;;;;3.05;2.85;;;10.40;99.90;;;;;;4951935;28;20035;-66
2023/04/24 02:25:53;;;;;;;3.30;3.00;;;10.40;99.90;;;;;;4949043;28;20039;-67
2023/04/24 02:28:19;;;;;;;3.65;3.35;;;10.30;99.90;;;;;;4955188;28;21150;-66
2023/04/24 02:30:45;;;;;;;2.83;2.63;;;10.30;99.90;;;;;;4949774;28;20050;-66
2023/04/24 02:33:11;;;;;;;3.92;3.38;;;10.30;99.90;;;;;;4940740;28;20050;-67
2023/04/24 02:35:37;;;;;;;4.00;3.60;;;10.30;99.90;;;;;;4949592;28;20042;-67
2023/04/24 02:38:03;;;;;;;3.60;3.30;;;10.30;99.90;;;;;;4952643;28;20050;-66
2023/04/24 02:40:29;;;;;;;5.07;3.80;;;10.30;99.90;;;;;;4948595;28;20538;-67
2023/04/24 02:42:55;;;;;;;4.00;3.70;;;10.30;99.90;;;;;;4934233;28;20045;-67
2023/04/24 02:45:21;;;;;;;4.90;4.18;;;10.30;99.90;;;;;;4937599;28;20047;-67
2023/04/24 02:47:47;;;;;;;4.93;4.43;;;10.30;99.90;;;;;;4951217;28;20113;-66
2023/04/24 02:50:12;;;;;;;5.60;4.68;;;10.30;99.90;;;;;;4949184;28;20047;-66
2023/04/24 02:52:38;;;;;;;4.88;4.47;;;10.30;99.90;;;;;;4950171;28;20086;-66
2023/04/24 02:55:04;;;;;;;5.15;4.65;;;10.40;99.90;;;;;;4949313;28;20051;-67
2023/04/24 02:57:30;;;;;;;5.45;4.95;;;10.40;99.90;;;;;;4932425;28;20448;-68
2023/04/24 02:59:56;;;;;;;6.32;5.10;;;10.40;99.90;;;;;;4950831;28;20043;-66
2023/04/24 03:02:21;;;;;;;6.57;5.60;;;10.40;99.90;;;;;;4956428;28;20097;-67
2023/04/24 03:04:50;;;;;;;6.57;5.95;;;10.30;99.90;;;;;;4951228;28;20074;-67
2023/04/24 03:07:16;;;;;;;5.50;5.00;;;10.40;99.90;;;;;;4947134;28;20078;-67
2023/04/24 03:09:41;;;;;;;7.00;5.82;;;10.40;99.90;;;;;;4932050;28;20541;-66
2023/04/24 03:12:07;;;;;;;8.35;6.10;;;10.40;99.90;;;;;;4940330;28;20114;-66
2023/04/24 03:14:33;;;;;;;7.57;5.65;;;10.40;99.90;;;;;;4948245;28;23417;-66
2023/04/24 03:16:58;;;;;;;7.68;6.05;;;10.40;99.90;;;;;;4946933;28;20034;-67
2023/04/24 03:19:24;;;;;;;7.55;6.40;;;10.40;99.90;;;;;;4949032;28;20040;-67
2023/04/24 03:21:50;;;;;;;7.60;6.07;;;10.40;99.90;;;;;;4951591;28;20036;-67
2023/04/24 03:24:16;;;;;;;7.70;6.90;;;10.40;99.90;;;;;;4953280;28;20042;-68
2023/04/24 03:26:42;;;;;;;7.82;6.63;;;10.40;99.90;;;;;;4942318;28;20272;-67
2023/04/24 03:29:07;;;;;;;8.05;7.05;;;10.40;99.90;;;;;;4955474;28;20097;-67
2023/04/24 03:31:33;;;;;;;8.05;7.25;;;10.40;99.90;;;;;;4948267;28;20078;-67
2023/04/24 03:33:59;;;;;;;8.93;8.00;;;10.40;99.90;;;;;;4950712;28;20043;-67
2023/04/24 03:36:25;;;;;;;15.48;9.23;;;10.40;99.90;;;;;;4951969;28;20124;-66
2023/04/24 03:38:51;;;;;;;8.43;7.63;;;10.40;99.90;;;;;;4956466;28;20051;-67
2023/04/24 03:41:17;;;;;;;9.30;8.18;;;10.40;99.90;;;;;;4924393;28;20771;-67
2023/04/24 03:43:43;;;;;;;11.73;8.68;;;10.40;99.90;;;;;;4951049;28;20039;-67
2023/04/24 03:46:09;;;;;;;9.60;8.60;;;10.40;99.90;;;;;;4955055;28;20489;-66
2023/04/24 03:48:35;;;;;;;9.70;8.70;;;10.40;99.90;;;;;;4938250;28;20042;-67
2023/04/24 03:51:01;;;;;;;9.75;8.75;;;10.40;99.90;;;;;;4956035;28;20171;-66
2023/04/24 03:53:27;;;;;;;11.95;9.10;;;10.40;99.90;;;;;;4946650;28;20068;-65
2023/04/24 03:55:53;;;;;;;10.55;9.43;;;10.40;99.90;;;;;;4941379;28;20809;-67
2023/04/24 03:58:19;;;;;;;10.93;9.73;;;10.50;99.90;;;;;;4947207;28;20069;-66
2023/04/24 04:00:46;;;;;;;10.60;9.32;;;10.50;99.90;;;;;;4947788;28;20042;-67
2023/04/24 04:03:13;;;;;;;12.85;10.10;;;10.50;99.90;;;;;;4946028;28;20042;-66
2023/04/24 04:05:39;;;;;;;11.75;10.55;;;10.50;99.90;;;;;;4945844;28;20055;-67
2023/04/24 04:08:05;;;;;;;10.70;9.60;;;10.50;99.90;;;;;;4947618;28;20090;-67
2023/04/24 04:10:31;;;;;;;11.88;10.68;;;10.50;99.90;;;;;;4949725;28;20528;-66
2023/04/24 04:12:56;;;;;;;13.73;11.88;;;10.50;99.90;;;;;;4948088;28;20038;-66
2023/04/24 04:15:22;;;;;;;12.88;11.50;;;10.50;99.90;;;;;;4946169;28;20061;-65
2023/04/24 04:17:48;;;;;;;13.55;11.77;;;10.50;99.90;;;;;;4940303;28;20423;-67
2023/04/24 04:20:13;;;;;;;13.20;11.90;;;10.50;99.90;;;;;;4948655;28;20046;-67
2023/04/24 04:22:39;;;;;;;14.95;12.73;;;10.50;99.90;;;;;;4944995;28;20071;-67
2023/04/24 04:25:06;;;;;;;14.10;12.60;;;10.40;99.90;;;;;;4948071;28;20039;-67
2023/04/24 04:27:32;;;;;;;14.68;12.68;;;10.40;99.90;;;;;;4950469;28;20039;-67
2023/04/24 04:30:04;;;;;;;15.52;12.43;;;10.40;99.90;;;;;;4939991;28;20053;-67
2023/04/24 04:32:34;;;;;;;13.48;12.07;;;10.40;99.90;;;;;;4950651;28;20046;-66
2023/04/24 04:35:03;;;;;;;15.00;12.68;;;10.40;99.90;;;;;;4959507;28;20066;-67
2023/04/24 04:37:31;;;;;;;13.35;12.05;;;10.40;99.90;;;;;;4953633;28;20040;-67
2023/04/24 04:39:59;;;;;;;15.63;12.10;;;10.40;99.90;;;;;;4951392;28;20074;-67
2023/04/24 04:42:26;;;;;;;13.48;12.07;;;10.40;99.90;;;;;;4950879;28;20765;-68
2023/04/24 04:44:52;;;;;;;14.32;12.93;;;10.40;99.90;;;;;;4949549;28;20051;-66
2023/04/24 04:47:22;;;;;;;11.73;10.52;;;10.40;99.90;;;;;;4918755;28;20101;-67
2023/04/24 04:49:48;;;;;;;12.35;10.88;;;10.40;99.90;;;;;;4945817;28;20055;-67
2023/04/24 04:52:13;;;;;;;12.10;10.90;;;10.40;99.90;;;;;;4948253;28;20050;-67
2023/04/24 04:54:39;;;;;;;7.78;6.97;;;10.40;99.90;;;;;;4951182;28;20211;-67
2023/04/24 04:57:06;;;;;;;7.63;5.07;;;10.40;99.90;;;;;;4952959;28;20050;-67
2023/04/24 04:59:32;;;;;;;5.70;4.80;;;10.40;99.90;;;;;;4933822;28;20046;-66
2023/04/24 05:01:57;;;;;;;4.47;3.92;;;10.50;99.90;;;;;;4949059;28;20065;-67
2023/04/24 05:04:23;;;;;;;4.30;3.70;;;10.50;99.90;;;;;;4951852;28;20397;-66
2023/04/24 05:06:50;;;;;;;5.35;4.28;;;10.50;99.90;;;;;;4955725;28;20220;-67
2023/04/24 05:09:16;;;;;;;4.43;3.83;;;10.50;99.90;;;;;;4953609;28;20047;-66
2023/04/24 05:11:42;;;;;;;4.32;3.85;;;10.50;99.90;;;;;;4948259;28;20051;-66
2023/04/24 05:14:07;;;;;;;5.95;4.07;;;10.50;99.90;;;;;;4951665;28;20089;-67
2023/04/24 05:16:33;;;;;;;5.13;4.13;;;10.50;99.90;;;;;;4951148;28;20054;-67
2023/04/24 05:18:59;;;;;;;6.40;4.47;;;10.50;99.90;;;;;;4927226;28;20055;-62
2023/04/24 05:21:25;;;;;;;5.90;4.38;;;10.50;99.90;;;;;;4929299;28;20868;-62
2023/04/24 05:23:50;;;;;;;4.90;4.40;;;10.50;99.90;;;;;;4948244;28;20039;-62
2023/04/24 05:26:17;;;;;;;6.22;5.00;;;10.50;99.90;;;;;;4945020;28;20231;-62
2023/04/24 05:28:43;;;;;;;7.78;5.90;;;10.50;99.90;;;;;;4946611;28;20674;-62
2023/04/24 05:31:09;;;;;;;6.13;5.53;;;10.40;99.90;;;;;;4932175;28;20039;-62
2023/04/24 05:33:34;;;;;;;6.00;5.10;;;10.40;99.90;;;;;;4944063;28;20058;-64
2023/04/24 05:36:00;;;;;;;6.97;3.85;;;10.40;99.90;;;;;;4945242;28;20038;-62
2023/04/24 05:38:26;;;;;;;7.00;4.30;;;10.40;99.90;;;;;;4954375;28;20153;-62
2023/04/24 05:40:51;;;;;;;5.80;4.30;;;10.40;99.90;;;;;;4957262;28;20109;-63
2023/04/24 05:43:17;;;;;;;5.43;3.78;;;10.40;99.90;;;;;;4945400;28;20604;-62
2023/04/24 05:45:43;;;;;;;4.82;3.83;;;10.40;99.90;;;;;;4956020;28;20114;-63
2023/04/24 05:48:09;;;;;;;4.40;3.83;;;10.40;99.90;;;;;;4949064;28;20042;-63
2023/04/24 05:50:34;;;;;;;6.82;3.88;;;10.30;99.90;;;;;;4952000;28;20082;-62
2023/04/24 05:53:01;;;;;;;5.80;3.72;;;10.40;99.90;;;;;;4950241;28;20067;-63
2023/04/24 05:55:27;;;;;;;4.63;3.40;;;10.30;99.90;;;;;;4944340;28;20073;-63
2023/04/24 05:57:53;;;;;;;9.50;3.72;;;10.30;99.90;;;;;;4950465;28;20043;-63
2023/04/24 06:00:20;;;;;;;4.50;3.95;;;10.30;99.90;;;;;;4946783;28;20046;-62
2023/04/24 06:02:46;;;;;;;4.43;4.03;;;10.30;99.90;;;;;;4953717;28;20039;-61
2023/04/24 06:05:12;;;;;;;5.95;4.20;;;10.30;99.90;;;;;;4954540;28;20051;-62
2023/04/24 06:07:38;;;;;;;3.90;3.60;;;10.20;99.90;;;;;;4950463;28;20086;-63
2023/04/24 06:10:04;;;;;;;8.35;4.07;;;10.20;99.90;;;;;;4944327;28;20098;-62
2023/04/24 06:12:31;;;;;;;6.47;4.00;;;10.20;99.90;;;;;;4954077;28;20043;-63
2023/04/24 06:14:56;;;;;;;8.27;4.70;;;10.20;99.90;;;;;;4947177;28;20051;-62
2023/04/24 06:17:22;;;;;;;9.90;5.75;;;10.20;99.90;;;;;;4938441;28;20061;-62
2023/04/24 06:19:48;;;;;;;8.23;6.55;;;10.20;99.90;;;;;;4929721;28;20388;-62
2023/04/24 06:22:13;;;;;;;8.77;6.65;;;10.20;99.90;;;;;;4949151;28;20050;-62
2023/04/24 06:24:42;;;;;;;9.50;6.88;;;10.20;99.90;;;;;;4945451;28;20030;-62
2023/04/24 06:27:08;;;;;;;8.15;5.97;;;10.30;99.90;;;;;;4953895;28;20050;-62
2023/04/24 06:29:34;;;;;;;10.57;6.68;;;10.30;99.90;;;;;;4962320;28;20398;-62
2023/04/24 06:32:00;;;;;;;7.70;5.88;;;10.30;99.90;;;;;;4953695;28;20102;-63
2023/04/24 06:34:25;;;;;;;8.27;5.80;;;10.30;99.90;;;;;;4952793;28;20836;-62
2023/04/24 06:36:51;;;;;;;9.57;6.22;;;10.30;99.90;;;;;;4951456;28;20082;-62
2023/04/24 06:39:17;;;;;;;8.43;5.50;;;10.30;99.90;;;;;;4955063;28;20484;-61
2023/04/24 06:41:43;;;;;;;9.13;5.55;;;10.30;99.90;;;;;;4955089;28;20050;-63
2023/04/24 06:44:08;;;;;;;6.47;4.40;;;10.20;99.90;;;;;;4951243;28;20042;-61
2023/04/24 06:46:34;;;;;;;9.07;5.43;;;10.20;99.90;;;;;;4950911;28;20078;-62
2023/04/24 06:49:00;;;;;;;7.07;4.30;;;10.20;99.90;;;;;;4944596;28;20036;-63
2023/04/24 06:51:27;;;;;;;9.77;4.40;;;10.20;99.90;;;;;;4952836;28;20498;-64
2023/04/24 06:53:56;;;;;;;5.82;3.72;;;10.20;99.90;;;;;;4951402;28;20047;-63
2023/04/24 06:56:22;;;;;;;4.90;3.47;;;10.20;99.90;;;;;;4954487;28;20514;-63
2023/04/24 06:58:48;;;;;;;5.35;3.20;;;10.20;99.90;;;;;;4951895;28;20067;-62
2023/04/24 07:01:14;;;;;;;6.05;2.67;;;10.20;99.90;;;;;;4952294;28;20058;-62
2023/04/24 07:03:39;;;;;;;3.35;2.50;;;10.20;99.90;;;;;;4929521;28;20035;-62
2023/04/24 07:06:06;;;;;;;5.53;2.47;;;10.20;99.90;;;;;;4955764;28;20042;-63
2023/04/24 07:08:32;;;;;;;5.90;2.50;;;10.20;99.90;;;;;;4955893;28;20153;-63
2023/04/24 07:10:59;;;;;;;4.85;2.40;;;10.20;99.90;;;;;;4951068;28;20098;-63
2023/04/24 07:13:25;;;;;;;5.28;2.15;;;10.30;99.90;;;;;;4953268;28;20050;-62
2023/04/24 07:15:52;;;;;;;7.05;2.50;;;10.20;99.90;;;;;;4953562;28;20455;-61
2023/04/24 07:18:18;;;;;;;5.25;2.50;;;10.30;99.90;;;;;;4961348;28;20049;-62
2023/04/24 07:20:44;;;;;;;3.72;2.30;;;10.30;99.90;;;;;;4953830;28;20047;-62
2023/04/24 07:23:10;;;;;;;6.03;2.53;;;10.20;99.90;;;;;;4947339;28;20125;-62
2023/04/24 07:25:36;;;;;;;7.40;2.92;;;10.20;99.90;;;;;;4948424;28;20171;-63
2023/04/24 07:28:02;;;;;;;6.95;3.13;;;10.20;99.90;;;;;;4954935;28;20043;-62
2023/04/24 07:30:32;;;;;;;8.80;3.60;;;10.20;99.90;;;;;;4942151;28;20058;-62
2023/04/24 07:32:58;;;;;;;5.13;3.20;;;10.10;99.90;;;;;;4952342;28;20050;-62
2023/04/24 07:35:25;;;;;;;6.70;3.80;;;10.10;99.90;;;;;;4953711;28;20047;-62
2023/04/24 07:37:55;;;;;;;7.45;3.42;;;10.10;99.90;;;;;;4936466;28;20118;-62
2023/04/24 07:40:21;;;;;;;7.82;3.25;;;10.10;99.90;;;;;;4928693;28;20050;-63
2023/04/24 07:42:50;;;;;;;10.10;2.95;;;10.10;99.90;;;;;;4960576;28;20166;-63
2023/04/24 07:45:16;;;;;;;8.07;2.80;;;10.10;99.90;;;;;;4950964;28;20043;-62
2023/04/24 07:47:45;;;;;;;7.75;3.03;;;10.10;99.90;;;;;;4953884;28;20047;-64
2023/04/24 07:50:12;;;;;;;9.98;4.30;;;10.10;99.90;;;;;;4931193;28;20410;-62
2023/04/24 07:52:38;;;;;;;11.82;4.93;;;10.00;99.90;;;;;;4951743;28;20049;-62
2023/04/24 07:55:05;;;;;;;10.68;5.30;;;10.00;99.90;;;;;;4940707;28;20058;-61
2023/04/24 07:57:31;;;;;;;10.27;6.53;;;10.00;99.90;;;;;;4951941;28;20138;-61
2023/04/24 07:59:56;;;;;;;16.17;7.30;;;10.00;99.90;;;;;;4941910;28;20096;-63
2023/04/24 08:02:26;;;;;;;16.50;8.30;;;9.90;99.90;;;;;;4959260;28;20039;-62
2023/04/24 08:04:53;;;;;;;19.30;9.68;;;9.90;99.90;;;;;;4943553;28;20407;-63
2023/04/24 08:07:19;;;;;;;19.05;10.05;;;9.90;99.90;;;;;;4943750;28;20101;-63
2023/04/24 08:09:45;;;;;;;19.67;10.77;;;9.90;99.90;;;;;;4937166;28;20509;-62
2023/04/24 08:12:11;;;;;;;19.70;11.63;;;9.90;99.90;;;;;;4950505;28;20046;-63
2023/04/24 08:14:36;;;;;;;22.80;12.88;;;9.90;99.90;;;;;;4939931;28;20035;-63
2023/04/24 08:17:03;;;;;;;21.98;13.23;;;9.80;99.90;;;;;;4951348;28;20058;-62
2023/04/24 08:19:29;;;;;;;26.75;13.73;;;9.80;99.90;;;;;;4952725;28;20371;-62
2023/04/24 08:21:54;;;;;;;25.77;14.10;;;9.80;99.90;;;;;;4937229;28;20045;-62
2023/04/24 08:24:20;;;;;;;29.13;14.82;;;9.80;99.90;;;;;;4937304;28;20047;-61
2023/04/24 08:26:50;;;;;;;22.77;13.93;;;9.80;99.90;;;;;;4943277;28;20061;-63
2023/04/24 08:29:16;;;;;;;24.40;14.30;;;9.80;99.90;;;;;;4952015;28;20707;-61
2023/04/24 08:31:44;;;;;;;26.05;14.48;;;9.80;99.90;;;;;;4948296;28;20082;-61
2023/04/24 08:34:10;;;;;;;24.10;13.23;;;9.80;99.90;;;;;;4932763;28;20043;-63
2023/04/24 08:36:37;;;;;;;18.33;12.02;;;9.80;99.90;;;;;;4936909;28;20054;-63
2023/04/24 08:39:02;;;;;;;24.10;12.10;;;9.80;99.90;;;;;;4933880;28;20405;-63
2023/04/24 08:41:28;;;;;;;23.13;11.98;;;9.70;99.90;;;;;;4952033;28;20043;-61
2023/04/24 08:43:57;;;;;;;20.25;11.52;;;9.70;99.90;;;;;;4955186;28;20047;-62
2023/04/24 08:46:24;;;;;;;18.42;11.60;;;9.60;99.90;;;;;;4948498;28;20486;-63
2023/04/24 08:48:52;;;;;;;24.80;11.23;;;9.60;99.90;;;;;;4954775;28;20182;-62
2023/04/24 08:51:18;;;;;;;16.52;10.25;;;9.60;99.90;;;;;;4952076;28;20478;-63
2023/04/24 08:53:45;;;;;;;14.98;10.40;;;9.60;99.90;;;;;;4955230;28;20058;-62
2023/04/24 08:56:12;;;;;;;18.25;10.43;;;9.50;99.90;;;;;;4951304;28;20110;-62
2023/04/24 08:58:38;;;;;;;21.30;10.77;;;9.50;99.90;;;;;;4951453;28;20055;-62
2023/04/24 09:01:05;;;;;;;21.83;12.30;;;9.40;99.90;;;;;;4951554;28;20075;-63
2023/04/24 09:03:32;;;;;;;20.60;14.40;;;9.50;99.90;;;;;;4958479;28;20058;-62
2023/04/24 09:06:00;;;;;;;20.48;14.13;;;9.40;99.90;;;;;;4951849;28;20188;-63
2023/04/24 09:08:28;;;;;;;20.63;13.65;;;9.40;99.90;;;;;;4952446;28;20051;-62
2023/04/24 09:10:53;;;;;;;20.65;13.32;;;9.30;99.90;;;;;;4949753;28;20736;-62
2023/04/24 09:13:22;;;;;;;25.80;14.40;;;9.30;99.90;;;;;;4948491;28;20047;-62
2023/04/24 09:15:48;;;;;;;22.63;11.95;;;9.30;99.90;;;;;;4948152;28;20038;-63
2023/04/24 09:18:14;;;;;;;20.00;10.48;;;9.30;99.90;;;;;;4952041;28;20046;-63
2023/04/24 09:21:00;;;;;;;14.75;9.20;;;9.30;99.90;;;;;;4949811;28;20042;-64
2023/04/24 09:23:30;;;;;;;17.10;9.35;;;9.40;99.90;;;;;;4941379;28;20105;-61
2023/04/24 09:25:57;;;;;;;20.25;8.48;;;9.40;99.90;;;;;;4954875;28;20043;-62
2023/04/24 09:28:36;;;;;;;17.85;8.35;;;9.40;99.90;;;;;;4951277;28;20113;-62
2023/04/24 09:31:03;;;;;;;17.13;8.27;;;9.40;99.90;;;;;;4944154;28;20047;-61
2023/04/24 09:33:29;;;;;;;12.85;8.05;;;9.40;99.90;;;;;;4945563;28;21090;-64
2023/04/24 09:35:55;;;;;;;15.45;8.68;;;9.50;99.90;;;;;;4944743;28;20066;-62
2023/04/24 09:38:35;;;;;;;18.73;8.23;;;9.50;99.90;;;;;;4946054;28;20045;-62
2023/04/24 09:41:08;;;;;;;21.85;8.10;;;9.50;99.90;;;;;;4948865;28;20795;-62
2023/04/24 09:43:35;;;;;;;16.27;7.30;;;9.50;99.90;;;;;;4946617;28;20043;-63
2023/04/24 09:46:06;;;;;;;15.88;7.75;;;9.50;99.90;;;;;;4948299;28;20638;-62
2023/04/24 09:48:36;;;;;;;19.10;7.25;;;9.50;99.90;;;;;;4952557;28;20047;-63
2023/04/24 09:51:06;;;;;;;19.05;6.85;;;9.40;99.90;;;;;;4938706;28;20516;-62
2023/04/24 09:53:32;;;;;;;17.75;7.35;;;9.40;99.90;;;;;;4949822;28;20053;-63
2023/04/24 09:56:09;;;;;;;18.83;5.97;;;9.50;99.90;;;;;;4936177;28;20054;-63
2023/04/24 09:58:36;;;;;;;11.90;5.75;;;9.50;99.90;;;;;;4943613;28;20209;-62
2023/04/24 10:01:02;;;;;;;14.20;5.32;;;9.60;99.90;;;;;;4948173;28;20093;-63
2023/04/24 10:03:32;;;;;;;9.63;5.35;;;9.70;99.90;;;;;;4936239;28;20576;-62
2023/04/24 10:06:08;;;;;;;13.50;5.00;;;9.80;99.90;;;;;;4934604;28;20110;-62
2023/04/24 10:08:35;;;;;;;12.65;4.20;;;9.90;99.90;;;;;;4930267;28;20060;-62
2023/04/24 10:11:01;;;;;;;11.88;3.63;;;10.00;99.90;;;;;;4928556;28;20069;-63
2023/04/24 10:13:28;;;;;;;8.90;3.63;;;10.10;99.90;;;;;;4933575;28;20047;-62
2023/04/24 10:15:54;;;;;;;11.77;3.80;;;10.20;99.90;;;;;;4919125;28;20055;-62
2023/04/24 10:18:21;;;;;;;12.15;4.10;;;10.20;99.90;;;;;;4914974;28;20050;-63
2023/04/24 10:20:47;;;;;;;9.23;3.90;;;10.30;99.90;;;;;;4915432;28;20055;-63
2023/04/24 10:23:13;;;;;;;9.43;3.90;;;10.30;99.90;;;;;;4928958;28;21324;-63
2023/04/24 10:25:39;;;;;;;10.95;3.85;;;10.30;99.90;;;;;;4927606;28;20042;-62
2023/04/24 10:28:05;;;;;;;9.73;3.67;;;10.40;99.90;;;;;;4927179;28;20051;-63
2023/04/24 10:30:36;;;;;;;11.15;3.75;;;10.40;99.90;;;;;;4928758;28;20055;-64
2023/04/24 10:33:03;;;;;;;17.30;4.03;;;10.50;99.90;;;;;;4928627;28;20436;-62
2023/04/24 10:35:32;;;;;;;8.65;3.83;;;10.60;99.90;;;;;;4928154;28;20077;-62
2023/04/24 10:38:02;;;;;;;10.88;4.03;;;10.60;99.90;;;;;;4928248;28;20529;-63
2023/04/24 10:40:34;;;;;;;15.60;4.00;;;10.60;99.90;;;;;;4928898;28;20109;-63
2023/04/24 10:43:11;;;;;;;14.20;3.40;;;10.60;99.90;;;;;;4930494;28;20050;-63
2023/04/24 10:45:37;;;;;;;10.88;3.55;;;10.60;99.90;;;;;;4926336;28;20370;-63
2023/04/24 10:48:13;;;;;;;7.28;3.13;;;10.60;99.90;;;;;;4925697;28;20088;-64
2023/04/24 10:50:51;;;;;;;10.98;2.90;;;10.60;99.90;;;;;;4916880;28;20055;-62
2023/04/24 10:53:19;;;;;;;12.43;3.33;;;10.60;99.90;;;;;;4917022;28;20495;-63
2023/04/24 10:55:50;;;;;;;13.30;3.63;;;10.50;99.90;;;;;;4926456;28;20052;-63
2023/04/24 10:58:21;;;;;;;7.28;3.15;;;10.50;99.90;;;;;;4928886;28;20042;-62
2023/04/24 11:01:00;;;;;;;10.60;3.65;;;10.50;99.90;;;;;;4919440;28;20093;-63
2023/04/24 11:03:28;;;;;;;9.45;2.83;;;10.50;99.90;;;;;;4928533;28;20061;-63
2023/04/24 11:05:59;;;;;;;9.82;2.90;;;10.60;99.90;;;;;;4920181;28;20260;-62
2023/04/24 11:08:30;;;;;;;8.18;2.72;;;10.60;99.90;;;;;;4945261;28;20067;-62
2023/04/24 11:11:07;;;;;;;14.55;3.00;;;10.50;99.90;;;;;;4927251;28;20054;-62
2023/04/24 11:13:54;;;;;;;7.97;2.60;;;10.50;99.90;;;;;;4931670;28;20115;-63
2023/04/24 11:16:24;;;;;;;8.55;2.58;;;10.40;99.90;;;;;;4944766;28;20075;-64
2023/04/24 11:19:07;;;;;;;10.82;2.97;;;10.40;99.90;;;;;;4933240;28;20827;-63
2023/04/24 11:21:40;;;;;;;;;;;10.30;99.90;;;;;;4944142;28;20058;-61
2023/04/24 11:24:39;;;;;;;8.45;2.78;;;10.30;99.90;;;;;;4946808;28;20365;-61
2023/04/24 11:27:13;;;;;;;12.77;3.05;;;10.30;99.90;;;;;;4944305;28;20057;-64
2023/04/24 11:29:48;;;;;;;12.15;2.45;;;10.40;99.90;;;;;;4946452;28;20039;-61
2023/04/24 11:32:41;;;;;;;9.20;2.60;;;10.40;99.90;;;;;;4942934;28;20058;-62
2023/04/24 11:35:16;;;;;;;9.75;2.53;;;10.30;99.90;;;;;;4942569;28;22301;-62
2023/04/24 11:37:46;;;;;;;8.30;2.28;;;10.30;99.90;;;;;;4944326;28;20050;-64
2023/04/24 11:40:17;;;;;;;12.60;2.70;;;10.30;99.90;;;;;;4944464;28;20167;-63
2023/04/24 11:42:50;;;;;;;10.93;2.50;;;10.30;99.90;;;;;;4944291;28;20582;-63
2023/04/24 11:45:20;;;;;;;7.18;2.00;;;10.20;99.90;;;;;;4943542;28;20077;-63
2023/04/24 11:47:46;;;;;;;7.05;2.17;;;10.20;99.90;;;;;;4943389;28;20050;-63
2023/04/24 11:50:13;;;;;;;9.38;2.20;;;10.20;99.90;;;;;;4944446;28;20047;-62
2023/04/24 11:52:41;;;;;;;6.97;1.92;;;10.20;99.90;;;;;;4929877;28;20078;-62
2023/04/24 11:55:16;;;;;;;8.68;2.30;;;10.20;99.90;;;;;;4943841;28;20047;-61
2023/04/24 11:57:47;;;;;;;10.70;2.60;;;10.20;99.90;;;;;;4944017;28;20054;-63
2023/04/24 12:00:18;;;;;;;9.30;2.15;;;10.20;99.90;;;;;;4945346;28;20055;-63
2023/04/24 12:02:44;;;;;;;11.20;2.30;;;10.20;99.90;;;;;;4935885;28;20101;-63
2023/04/24 12:05:23;;;;;;;8.27;2.25;;;10.20;99.90;;;;;;4947761;28;20047;-64
2023/04/24 12:07:49;;;;;;;6.18;1.70;;;10.20;99.90;;;;;;4931407;28;20055;-63
2023/04/24 12:10:20;;;;;;;4.70;2.00;;;10.10;99.90;;;;;;4914773;28;20066;-62
2023/04/24 12:12:46;;;;;;;6.07;1.90;;;10.10;99.90;;;;;;4941757;28;20056;-62
2023/04/24 12:15:12;;;;;;;9.75;2.40;;;10.00;99.90;;;;;;4953128;28;20061;-61
2023/04/24 12:17:41;;;;;;;5.28;1.85;;;10.10;99.90;;;;;;4943429;28;20050;-62
2023/04/24 12:20:08;;;;;;;6.75;1.92;;;10.00;99.90;;;;;;4944854;28;20054;-63
2023/04/24 12:22:53;;;;;;;4.97;1.70;;;10.10;99.90;;;;;;4942763;28;20173;-62
2023/04/24 12:25:20;;;;;;;6.05;1.63;;;10.20;99.90;;;;;;4944006;28;20077;-63
2023/04/24 12:27:47;;;;;;;4.65;1.60;;;10.20;99.90;;;;;;4943499;28;20133;-63
2023/04/24 12:30:15;;;;;;;4.20;1.67;;;10.20;99.90;;;;;;4945502;28;20070;-62
2023/04/24 12:32:49;;;;;;;5.63;1.65;;;10.30;99.90;;;;;;4928398;28;20050;-63
2023/04/24 12:35:25;;;;;;;4.18;1.50;;;10.40;99.90;;;;;;4943665;28;21381;-62
2023/04/24 12:37:51;;;;;;;4.68;1.33;;;10.50;99.90;;;;;;4936098;28;20129;-62
2023/04/24 12:40:18;;;;;;;6.00;1.20;;;10.60;99.90;;;;;;4941437;28;20051;-63
2023/04/24 12:42:46;;;;;;;5.07;1.30;;;10.50;99.90;;;;;;4930687;28;20051;-63
2023/04/24 12:45:13;;;;;;;3.28;1.20;;;10.50;99.90;;;;;;4945515;28;20051;-62